CET,Max TemperatureF,Mean TemperatureF,Min TemperatureF,Max Dew PointF,MeanDew PointF,Min DewpointF,Max Humidity, Mean Humidity, Min Humidity, Max Sea Level PressureIn, Mean Sea Level PressureIn, Min Sea Level PressureIn, Max VisibilityMiles, Mean VisibilityMiles, Min VisibilityMiles, Max Wind SpeedMPH, Mean Wind SpeedMPH, Max Gust SpeedMPH,PrecipitationIn, CloudCover, Events, WindDirDegrees
2012-11-1,57,48,39,51,46,34,100,83,64,29.80,29.56,29.44,19,7,6,30,16,46,0.16,7,Rain,138
2012-11-2,63,52,42,57,49,41,100,91,72,29.95,29.77,29.62,19,5,1,16,7,,0.04,3,Fog-Rain,228
2012-11-3,58,46,35,57,46,36,100,98,88,30.04,29.99,29.95,5,2,0,13,7,,0.00,5,Fog,150
2012-11-4,67,54,41,55,49,43,100,80,56,29.96,29.90,29.77,6,4,2,13,8,,0.00,4,,148
2012-11-5,66,56,46,56,49,41,100,82,61,29.83,29.58,29.44,6,5,2,25,17,39,0.59,7,Rain,211
2012-11-6,57,48,38,46,41,37,100,79,41,30.15,29.98,29.83,19,7,4,12,5,,0.00,4,Fog-Rain,256
2012-11-7,52,44,35,39,37,32,87,71,45,30.33,30.24,30.15,19,7,6,13,7,,0.00,5,,258
2012-11-8,56,48,39,45,42,37,93,79,55,30.33,30.26,30.09,16,8,6,12,7,,0.00,2,,190
2012-11-9,54,46,37,43,40,37,100,79,56,30.18,30.09,30.04,19,8,5,16,8,,0.00,5,,280
2012-11-10,46,40,34,46,40,34,100,97,76,30.21,30.17,30.09,5,1,0,16,7,,0.00,6,Fog,118
2012-11-11,58,50,42,45,41,37,87,70,47,30.15,30.08,30.06,19,14,9,21,14,30,0.00,,,140
2012-11-12,60,51,42,50,45,39,94,78,51,30.27,30.21,30.15,19,11,6,10,6,,0.00,7,,135
2012-11-13,52,48,42,50,46,37,100,91,76,30.48,30.37,30.27,11,5,2,15,8,,0.24,7,Rain,351
2012-11-14,44,39,34,41,37,30,100,85,66,30.48,30.46,30.42,14,6,1,12,7,,0.00,7,,14
2012-11-15,50,42,35,45,41,36,100,91,75,30.45,30.35,30.30,6,3,0,6,3,,0.00,4,Fog,44
2012-11-16,50,42,35,45,40,36,100,94,73,30.31,30.28,30.24,6,2,0,8,4,,0.00,4,Fog,35
2012-11-17,52,44,35,45,40,36,100,89,67,30.25,30.16,30.09,7,4,0,13,5,,0.00,3,Fog,132
2012-11-18,55,46,38,45,41,37,100,83,63,30.09,30.06,30.04,12,7,5,14,9,,0.00,3,,133
2012-11-19,52,44,35,45,40,35,100,90,64,30.18,30.13,30.09,9,3,0,8,4,,0.00,5,Fog,57
2012-11-20,50,40,31,45,39,32,100,93,71,30.24,30.20,30.15,6,2,0,12,5,,0.00,4,Fog,28
2012-11-21,46,41,36,43,40,37,100,94,85,30.24,30.22,30.21,6,4,1,7,4,,0.00,6,,43
2012-11-22,48,44,40,45,41,39,93,84,68,30.33,30.29,30.24,16,6,5,10,6,,0.00,7,,138
2012-11-23,48,45,42,45,43,41,100,87,76,30.29,30.25,30.24,7,6,4,7,5,,0.00,8,,128
2012-11-24,51,44,33,45,43,34,100,91,68,30.30,30.27,30.24,4,2,0,6,1,,0.00,6,Fog,152
2012-11-25,48,40,33,48,41,36,100,99,93,30.25,30.20,30.15,3,1,0,7,3,,0.00,5,Fog,132
2012-11-26,54,46,39,48,44,39,100,91,80,30.17,30.08,29.98,9,4,2,10,7,,0.00,5,,135
2012-11-27,57,50,43,48,45,41,93,85,68,29.98,29.91,29.83,16,6,4,13,9,,0.00,4,,140
2012-11-28,60,51,42,50,45,41,93,79,59,29.83,29.67,29.44,19,12,6,21,11,30,0.00,7,,131
2012-11-29,60,53,46,52,49,43,94,84,63,29.47,29.39,29.33,6,6,6,23,16,28,0.00,5,Rain,162
2012-11-30,42,40,39,41,38,36,100,88,71,29.80,29.63,29.47,19,7,6,13,8,,0.08,7,Rain,314